Time;durP1;ratioP1;P1;durP2;ratioP2;P2;SDS_P1;SDS_P2;PMS_P1;PMS_P2;Temp;Humidity;BMP_temperature;BMP_pressure;BME280_temperature;BME280_humidity;BME280_pressure;Samples;Min_cycle;Max_cycle;Signal;HPM_P1;HPM_P2
2022/03/19 00:00:53;;;;;;;69.33;40.90;;;5.50;99.90;;;;;;5014525;28;20498;-90
2022/03/19 00:03:20;;;;;;;72.73;43.00;;;;;;;;;;5011438;28;20487;-91
2022/03/19 00:05:49;;;;;;;63.23;40.80;;;;;;;;;;5014569;28;20440;-92
2022/03/19 00:08:17;;;;;;;66.40;40.70;;;;;;;;;;5014359;28;20443;-90
2022/03/19 00:10:44;;;;;;;78.63;41.67;;;;;;;;;;5011435;28;20487;-90
2022/03/19 00:13:12;;;;;;;67.30;41.43;;;;;;;;;;5011728;28;20456;-92
2022/03/19 00:15:40;;;;;;;64.93;40.10;;;;;;;;;;5014388;28;20445;-90
2022/03/19 00:18:08;;;;;;;71.40;41.97;;;5.30;99.90;;;;;;5011239;28;20471;-89
2022/03/19 00:20:37;;;;;;;56.57;34.83;;;5.30;99.90;;;;;;5011571;28;20440;-91
2022/03/19 00:23:04;;;;;;;61.40;41.23;;;;;;;;;;5009732;28;20483;-93
2022/03/19 00:25:32;;;;;;;59.93;37.57;;;;;;;;;;5014337;28;20448;-89
2022/03/19 00:27:59;;;;;;;69.17;40.53;;;;;;;;;;5013168;28;20436;-91
2022/03/19 00:30:26;;;;;;;57.93;35.40;;;;;;;;;;5014714;28;20436;-90
2022/03/19 00:32:53;;;;;;;61.87;39.23;;;;;;;;;;5014055;28;20456;-92
2022/03/19 00:35:21;;;;;;;66.97;41.37;;;5.20;99.90;;;;;;5013767;28;20472;-91
2022/03/19 00:37:49;;;;;;;60.97;39.70;;;5.20;99.90;;;;;;5011181;28;20452;-91
2022/03/19 00:40:18;;;;;;;64.57;35.50;;;5.20;99.90;;;;;;5014310;28;20448;-90
2022/03/19 00:42:45;;;;;;;59.47;38.23;;;;;;;;;;5016952;28;20432;-92
2022/03/19 00:45:12;;;;;;;58.90;38.37;;;;;;;;;;5017926;28;20444;-90
2022/03/19 00:47:39;;;;;;;68.67;40.07;;;;;;;;;;5017589;28;20451;-91
2022/03/19 00:50:08;;;;;;;60.20;37.60;;;4.40;99.90;;;;;;5017746;28;20443;-92
2022/03/19 00:52:36;;;;;;;56.60;36.90;;;5.20;99.90;;;;;;5017740;28;20456;-91
2022/03/19 00:55:03;;;;;;;60.20;37.50;;;;;;;;;;5011914;28;20436;-92
2022/03/19 00:57:38;;;;;;;52.10;33.10;;;5.30;99.90;;;;;;5016836;28;20448;-88
2022/03/19 01:00:06;;;;;;;53.57;35.90;;;;;;;;;;5013334;28;20460;-90
2022/03/19 01:02:33;;;;;;;53.07;34.00;;;;;;;;;;5014288;28;20440;-92
2022/03/19 01:05:00;;;;;;;62.30;36.27;;;;;;;;;;5017638;28;20492;-92
2022/03/19 01:07:27;;;;;;;67.73;37.93;;;;;;;;;;5016758;28;20440;-91
2022/03/19 01:09:55;;;;;;;63.10;35.80;;;5.20;99.90;;;;;;5017148;28;20452;-89
2022/03/19 01:12:22;;;;;;;55.07;35.83;;;;;;;;;;5010535;28;20459;-90
2022/03/19 01:14:49;;;;;;;56.57;36.17;;;;;;;;;;5016768;28;20436;-90
2022/03/19 01:17:16;;;;;;;59.37;36.93;;;;;;;;;;5016834;28;20924;-91
2022/03/19 01:19:58;;;;;;;60.10;35.50;;;;;;;;;;5016484;28;20429;-92
2022/03/19 01:22:25;;;;;;;63.73;37.77;;;;;;;;;;5016647;28;20440;-92
2022/03/19 01:24:52;;;;;;;56.17;35.47;;;;;;;;;;5016598;28;20507;-93
2022/03/19 01:27:21;;;;;;;60.33;37.17;;;;;;;;;;5015776;28;20432;-90
2022/03/19 01:29:48;;;;;;;64.97;37.50;;;;;;;;;;5016731;28;20433;-90
2022/03/19 01:32:15;;;;;;;63.63;38.27;;;;;;;;;;5016479;28;20463;-92
2022/03/19 01:34:42;;;;;;;51.30;32.30;;;;;;;;;;5016544;28;21012;-91
2022/03/19 01:37:10;;;;;;;59.90;38.03;;;;;;;;;;5012973;28;20483;-91
2022/03/19 01:39:37;;;;;;;55.90;35.43;;;;;;;;;;5016635;28;20437;-92
2022/03/19 01:42:04;;;;;;;56.33;37.07;;;;;;;;;;5015323;28;20444;-91
2022/03/19 01:44:32;;;;;;;60.10;37.03;;;4.90;99.90;;;;;;5016422;28;20523;-92
2022/03/19 01:47:00;;;;;;;59.90;36.83;;;4.90;99.90;;;;;;5016146;28;20513;-90
2022/03/19 01:49:28;;;;;;;58.60;35.43;;;4.80;99.90;;;;;;5016649;28;20456;-90
2022/03/19 01:51:56;;;;;;;61.87;39.10;;;4.70;99.90;;;;;;5015904;28;20429;-91
2022/03/19 01:54:27;;;;;;;60.87;36.33;;;4.70;99.90;;;;;;5016592;28;20452;-90
2022/03/19 01:56:55;;;;;;;58.93;37.23;;;4.70;99.90;;;;;;5015545;28;20441;-91
2022/03/19 01:59:24;;;;;;;56.73;38.23;;;4.60;99.90;;;;;;5006922;28;20518;-91
2022/03/19 02:01:54;;;;;;;55.50;37.17;;;4.60;99.90;;;;;;5015947;28;20444;-92
2022/03/19 02:04:22;;;;;;;57.13;35.40;;;;;;;;;;5012780;28;20483;-90
2022/03/19 02:06:49;;;;;;;60.07;37.30;;;;;;;;;;5016117;28;20452;-91
2022/03/19 02:09:16;;;;;;;64.83;37.30;;;;;;;;;;5015447;28;20463;-90
2022/03/19 02:11:46;;;;;;;58.60;37.23;;;;;;;;;;5015844;28;20444;-90
2022/03/19 02:14:13;;;;;;;61.53;36.00;;;;;;;;;;5015816;28;20515;-92
2022/03/19 02:16:41;;;;;;;44.67;26.03;;;4.50;99.90;;;;;;5016474;28;20459;-90
2022/03/19 02:19:10;;;;;;;58.87;37.20;;;4.50;99.90;;;;;;5010489;28;20436;-93
2022/03/19 02:21:41;;;;;;;55.00;36.00;;;4.50;99.90;;;;;;5011108;28;20440;-91
2022/03/19 02:26:55;;;;;;;58.13;37.17;;;;;;;;;;5014712;28;20515;-91
2022/03/19 02:29:22;;;;;;;58.47;36.27;;;;;;;;;;5015858;28;20518;-92
2022/03/19 02:31:51;;;;;;;58.57;36.20;;;4.40;99.90;;;;;;5015308;28;20448;-92
2022/03/19 02:34:18;;;;;;;59.93;35.90;;;;;;;;;;5015708;28;20565;-89
2022/03/19 02:36:46;;;;;;;55.47;34.90;;;4.40;99.90;;;;;;5015597;28;20481;-91
2022/03/19 02:39:17;;;;;;;55.93;35.03;;;4.30;99.90;;;;;;5015613;28;20437;-90
2022/03/19 02:41:44;;;;;;;55.90;35.87;;;;;;;;;;5015110;28;20448;-91
2022/03/19 02:44:12;;;;;;;50.67;33.57;;;;;;;;;;5014742;28;20517;-90
2022/03/19 02:46:40;;;;;;;54.07;34.83;;;4.20;99.90;;;;;;5015177;28;20448;-91
2022/03/19 02:49:07;;;;;;;57.40;35.37;;;;;;;;;;5009835;28;20448;-92
2022/03/19 02:51:36;;;;;;;56.80;35.30;;;4.10;99.90;;;;;;5015219;28;20472;-93
2022/03/19 02:54:07;;;;;;;62.00;36.17;;;4.10;99.90;;;;;;5015353;28;20445;-93
2022/03/19 02:56:37;;;;;;;61.97;34.70;;;4.00;99.90;;;;;;5012374;28;20437;-91
2022/03/19 02:59:08;;;;;;;58.20;34.37;;;4.00;99.90;;;;;;5010079;28;20448;-91
2022/03/19 03:01:35;;;;;;;53.70;32.77;;;;;;;;;;5012628;28;20453;-91
2022/03/19 03:04:02;;;;;;;53.40;34.57;;;;;;;;;;5010405;28;20487;-91
2022/03/19 03:06:30;;;;;;;53.43;33.80;;;;;;;;;;5012172;28;20800;-91
2022/03/19 03:08:57;;;;;;;49.47;32.80;;;;;;;;;;5014742;28;20440;-90
2022/03/19 03:11:24;;;;;;;53.03;34.77;;;;;;;;;;5011113;28;21126;-91
2022/03/19 03:13:52;;;;;;;50.93;34.00;;;;;;;;;;5014886;28;20441;-93
2022/03/19 03:16:20;;;;;;;50.10;33.50;;;;;;;;;;5014556;28;20837;-90
2022/03/19 03:18:47;;;;;;;52.47;33.47;;;;;;;;;;5014929;28;20437;-91
2022/03/19 03:21:14;;;;;;;51.93;33.67;;;;;;;;;;5014619;28;20436;-90
2022/03/19 03:23:41;;;;;;;52.33;33.63;;;;;;;;;;5014158;28;20522;-92
2022/03/19 03:26:09;;;;;;;52.17;33.60;;;;;;;;;;5014508;28;20448;-92
2022/03/19 03:28:36;;;;;;;59.10;35.67;;;;;;;;;;5011139;28;20433;-90
2022/03/19 03:31:04;;;;;;;51.53;33.27;;;;;;;;;;5014642;28;20440;-90
2022/03/19 03:33:31;;;;;;;50.30;31.43;;;;;;;;;;5014425;28;20464;-92
2022/03/19 03:35:58;;;;;;;56.90;33.17;;;;;;;;;;5014636;28;20472;-92
2022/03/19 03:38:26;;;;;;;56.43;34.90;;;;;;;;;;5014607;28;20440;-93
2022/03/19 03:40:53;;;;;;;50.63;32.37;;;;;;;;;;5014703;28;20445;-92
2022/03/19 03:43:20;;;;;;;56.73;35.13;;;;;;;;;;5013663;28;20448;-91
2022/03/19 03:45:47;;;;;;;51.37;34.30;;;;;;;;;;5014099;28;20480;-91
2022/03/19 03:48:16;;;;;;;52.03;33.40;;;;;;;;;;5014725;28;20865;-90
2022/03/19 03:50:43;;;;;;;50.80;33.27;;;;;;;;;;5014389;28;20436;-93
2022/03/19 03:53:11;;;;;;;47.90;32.93;;;;;;;;;;5014975;28;20440;-91
2022/03/19 03:55:39;;;;;;;56.30;34.23;;;;;;;;;;4996985;28;21011;-91
2022/03/19 03:58:08;;;;;;;56.80;34.20;;;;;;;;;;5013559;28;20432;-92
2022/03/19 04:00:35;;;;;;;54.60;32.53;;;;;;;;;;5014087;28;20491;-92
2022/03/19 04:03:03;;;;;;;55.13;33.20;;;;;;;;;;5014393;28;20440;-91
2022/03/19 04:05:33;;;;;;;46.40;31.97;;;2.80;99.90;;;;;;5014056;28;20886;-93
2022/03/19 04:08:00;;;;;;;53.67;31.40;;;;;;;;;;5010910;28;20791;-90
2022/03/19 04:10:28;;;;;;;56.70;34.67;;;;;;;;;;5014802;28;21006;-93
2022/03/19 04:12:55;;;;;;;58.80;33.80;;;;;;;;;;5014108;28;20435;-91
2022/03/19 04:15:22;;;;;;;52.20;33.27;;;;;;;;;;5015879;28;20436;-90
2022/03/19 04:17:49;;;;;;;54.23;32.70;;;;;;;;;;5018377;28;20436;-91
2022/03/19 04:20:17;;;;;;;60.50;34.00;;;2.90;99.90;;;;;;5017889;28;20456;-92
2022/03/19 04:22:47;;;;;;;47.67;31.60;;;2.90;99.90;;;;;;5017926;28;20464;-92
2022/03/19 04:25:15;;;;;;;51.00;32.10;;;2.90;99.90;;;;;;5018099;28;20483;-91
2022/03/19 04:27:43;;;;;;;52.73;33.60;;;2.80;99.90;;;;;;5013280;28;20467;-90
2022/03/19 04:30:12;;;;;;;50.20;31.40;;;2.80;99.90;;;;;;5015149;28;20900;-91
2022/03/19 04:32:42;;;;;;;52.10;32.43;;;2.80;99.90;;;;;;5018118;28;20437;-92
2022/03/19 04:37:56;;;;;;;51.33;31.60;;;;;;;;;;5018168;28;20866;-91
2022/03/19 04:40:23;;;;;;;55.73;32.37;;;;;;;;;;5018139;28;20524;-91
2022/03/19 04:42:52;;;;;;;52.63;32.40;;;;;;;;;;5017415;28;20466;-91
2022/03/19 04:45:20;;;;;;;54.10;31.10;;;;;;;;;;5017951;28;20480;-90
2022/03/19 04:47:47;;;;;;;53.07;33.13;;;;;;;;;;5017537;28;20463;-92
2022/03/19 04:50:14;;;;;;;52.90;34.30;;;;;;;;;;5017502;28;20459;-91
2022/03/19 04:52:41;;;;;;;52.43;31.00;;;;;;;;;;5018146;28;20453;-91
2022/03/19 04:55:11;;;;;;;57.53;32.40;;;2.60;99.90;;;;;;5017723;28;20451;-91
2022/03/19 04:57:38;;;;;;;51.27;30.50;;;;;;;;;;5016571;28;20436;-90
2022/03/19 05:00:08;;;;;;;53.87;31.87;;;2.50;99.90;;;;;;5014615;28;20779;-91
2022/03/19 05:02:35;;;;;;;50.50;31.17;;;;;;;;;;5017749;28;20436;-90
2022/03/19 05:05:02;;;;;;;57.23;31.00;;;;;;;;;;5017528;28;20495;-90
2022/03/19 05:07:35;;;;;;;59.77;31.93;;;;;;;;;;5017326;28;20436;-91
2022/03/19 05:12:48;;;;;;;48.70;30.90;;;;;;;;;;5016730;28;20536;-93
2022/03/19 05:15:16;;;;;;;54.30;30.80;;;2.40;99.90;;;;;;5013369;28;20511;-91
2022/03/19 05:17:44;;;;;;;50.27;31.77;;;2.40;99.90;;;;;;5016959;28;20444;-90
2022/03/19 05:20:12;;;;;;;50.27;30.93;;;2.40;99.90;;;;;;5017137;28;20437;-91
2022/03/19 05:22:39;;;;;;;46.00;29.27;;;;;;;;;;5013864;28;20488;-91
2022/03/19 05:25:08;;;;;;;55.33;32.03;;;2.40;99.90;;;;;;5016401;28;20484;-92
2022/03/19 05:27:35;;;;;;;56.43;31.33;;;;;;;;;;5012491;28;20456;-91
2022/03/19 05:30:04;;;;;;;52.07;33.03;;;;;;;;;;5014030;28;20479;-91
2022/03/19 05:32:31;;;;;;;43.27;30.03;;;;;;;;;;5016814;28;20444;-91
2022/03/19 05:34:58;;;;;;;51.80;30.43;;;;;;;;;;5016919;28;20445;-92
2022/03/19 05:37:25;;;;;;;49.43;29.27;;;;;;;;;;5016323;28;20488;-91
2022/03/19 05:39:54;;;;;;;51.40;30.60;;;;;;;;;;5016841;28;20478;-93
2022/03/19 05:42:22;;;;;;;41.87;28.97;;;;;;;;;;5015841;28;20476;-92
2022/03/19 05:44:49;;;;;;;46.03;29.40;;;;;;;;;;5016441;28;20484;-91
2022/03/19 05:47:18;;;;;;;49.13;30.93;;;;;;;;;;5016506;28;20448;-91
2022/03/19 05:49:45;;;;;;;53.13;31.90;;;;;;;;;;5012665;28;20464;-92
2022/03/19 05:52:13;;;;;;;47.87;32.00;;;;;;;;;;5016466;28;20440;-90
2022/03/19 05:54:40;;;;;;;53.37;30.97;;;;;;;;;;5016678;28;20445;-91
2022/03/19 05:57:07;;;;;;;48.33;30.37;;;;;;;;;;5015536;28;20448;-92
2022/03/19 05:59:34;;;;;;;54.87;31.20;;;;;;;;;;5016243;28;20444;-91
2022/03/19 06:02:02;;;;;;;56.03;32.67;;;;;;;;;;5016349;28;20448;-90
2022/03/19 06:04:31;;;;;;;52.60;30.53;;;;;;;;;;5012078;28;20476;-92
2022/03/19 06:06:58;;;;;;;50.00;30.03;;;;;;;;;;5015696;28;20452;-89
2022/03/19 06:09:25;;;;;;;44.93;28.97;;;;;;;;;;5015817;28;20501;-91
2022/03/19 06:11:52;;;;;;;44.93;28.57;;;;;;;;;;5015684;28;20789;-92
2022/03/19 06:14:19;;;;;;;49.07;30.80;;;;;;;;;;5015418;28;20991;-91
2022/03/19 06:16:46;;;;;;;49.27;29.80;;;;;;;;;;5015591;28;20916;-91
2022/03/19 06:19:13;;;;;;;48.40;30.07;;;;;;;;;;5016194;28;20441;-90
2022/03/19 06:21:42;;;;;;;47.17;32.07;;;4.10;99.90;;;;;;5015515;28;20468;-90
2022/03/19 06:24:09;;;;;;;53.50;29.07;;;;;;;;;;5012047;28;20452;-92
2022/03/19 06:26:37;;;;;;;43.93;29.40;;;;;;;;;;5015315;28;20495;-92
2022/03/19 06:29:04;;;;;;;48.07;29.70;;;4.60;99.90;;;;;;5014802;28;20479;-91
2022/03/19 06:31:32;;;;;;;39.60;29.83;;;;;;;;;;5015451;28;20463;-91
2022/03/19 06:33:59;;;;;;;41.93;29.23;;;;;;;;;;5015560;28;20475;-90
2022/03/19 06:39:12;;;;;;;39.43;27.13;;;5.20;99.90;;;;;;5015159;28;20540;-90
2022/03/19 06:41:40;;;;;;;44.80;30.40;;;;;;;;;;5014112;28;20955;-91
2022/03/19 06:44:07;;;;;;;45.90;30.47;;;;;;;;;;5015876;28;20433;-90
2022/03/19 06:46:34;;;;;;;42.70;29.23;;;;;;;;;;5015692;28;20479;-91
2022/03/19 06:49:01;;;;;;;45.43;30.47;;;;;;;;;;5016731;28;20829;-88
2022/03/19 06:51:28;;;;;;;43.33;29.00;;;;;;;;;;5016899;28;20785;-91
2022/03/19 06:53:55;;;;;;;38.37;27.33;;;;;;;;;;5016718;28;20456;-91
2022/03/19 06:56:24;;;;;;;42.13;28.77;;;;;;;;;;5019182;28;20472;-90
2022/03/19 06:58:51;;;;;;;39.93;29.43;;;;;;;;;;5022373;28;20459;-89
2022/03/19 07:01:18;;;;;;;37.80;25.80;;;;;;;;;;5025837;28;20952;-89
2022/03/19 07:03:47;;;;;;;54.07;30.40;;;6.10;99.90;;;;;;5023235;28;20495;-90
2022/03/19 07:06:15;;;;;;;44.60;30.03;;;;;;;;;;5026355;28;20499;-89
2022/03/19 07:08:42;;;;;;;40.10;27.13;;;;;;;;;;5026323;28;20451;-87
2022/03/19 07:11:11;;;;;;;39.90;28.87;;;;;;;;;;5025937;28;20441;-90
2022/03/19 07:13:39;;;;;;;38.80;25.90;;;6.50;99.90;;;;;;5018249;28;20805;-89
2022/03/19 07:16:07;;;;;;;46.33;29.33;;;;;;;;;;5015216;28;20444;-91
2022/03/19 07:18:34;;;;;;;37.47;28.50;;;;;;;;;;5014894;28;20476;-90
2022/03/19 07:21:02;;;;;;;39.27;28.03;;;7.00;99.90;;;;;;5014818;28;20498;-92
2022/03/19 07:23:29;;;;;;;47.10;29.67;;;;;;;;;;5014848;28;20441;-92
2022/03/19 07:25:59;;;;;;;41.10;30.43;;;;;;;;;;5014899;28;21007;-91
2022/03/19 07:28:27;;;;;;;40.50;27.70;;;7.40;99.90;;;;;;5014441;28;20484;-94
2022/03/19 07:30:57;;;;;;;36.40;27.90;;;8.00;99.90;;;;;;5010250;28;20433;-92
2022/03/19 07:33:24;;;;;;;38.17;29.00;;;;;;;;;;5015062;28;20912;-90
2022/03/19 07:35:51;;;;;;;36.73;26.80;;;;;;;;;;5014742;28;20485;-88
2022/03/19 07:38:20;;;;;;;42.13;27.57;;;;;;;;;;5013575;28;20480;-94
2022/03/19 07:43:32;;;;;;;36.53;28.10;;;;;;;;;;5014246;28;20460;-93
2022/03/19 07:46:00;;;;;;;38.93;27.47;;;;;;;;;;5012168;28;20496;-93
2022/03/19 07:48:27;;;;;;;35.40;27.83;;;;;;;;;;5016242;28;20464;-90
2022/03/19 07:50:54;;;;;;;40.67;28.27;;;;;;;;;;5014381;28;20436;-90
2022/03/19 07:53:21;;;;;;;37.37;26.37;;;;;;;;;;5012779;28;20448;-90
2022/03/19 07:55:50;;;;;;;36.50;27.07;;;;;;;;;;5014890;28;20448;-90
2022/03/19 07:58:17;;;;;;;37.37;27.60;;;;;;;;;;5014586;28;20852;-92
2022/03/19 08:00:44;;;;;;;38.27;25.70;;;;;;;;;;5008545;28;20464;-94
2022/03/19 08:03:13;;;;;;;31.67;23.97;;;;;;;;;;5015180;28;20448;-90
2022/03/19 08:05:41;;;;;;;38.33;26.73;;;9.50;99.90;;;;;;5014438;28;20511;-93
2022/03/19 08:08:08;;;;;;;38.63;26.07;;;;;;;;;;5008189;28;20433;-90
2022/03/19 08:10:36;;;;;;;33.30;25.37;;;9.40;99.90;;;;;;5011470;28;20912;-91
2022/03/19 08:13:05;;;;;;;31.17;24.67;;;9.60;99.90;;;;;;5015125;28;20919;-92
2022/03/19 08:15:32;;;;;;;33.33;24.70;;;;;;;;;;5017301;28;20437;-92
2022/03/19 08:18:00;;;;;;;31.30;25.27;;;;;;;;;;5017207;28;20453;-94
2022/03/19 08:20:29;;;;;;;33.87;24.80;;;;;;;;;;5012421;28;20478;-93
2022/03/19 08:22:58;;;;;;;30.27;22.63;;;;;;;;;;5019491;28;20451;-92
2022/03/19 08:25:25;;;;;;;35.20;24.43;;;;;;;;;;5005223;23;20496;-94
2022/03/19 08:27:54;;;;;;;31.20;23.90;;;;;;;;;;4983988;28;20459;-94
2022/03/19 08:30:21;;;;;;;32.50;23.70;;;;;;;;;;4976688;28;20458;-92
2022/03/19 08:32:48;;;;;;;31.60;24.73;;;;;;;;;;4974194;28;20453;-94
2022/03/19 08:35:15;;;;;;;31.53;23.20;;;;;;;;;;4975853;28;20469;-92
2022/03/19 08:37:44;;;;;;;31.53;23.00;;;;;;;;;;4973465;28;20511;-94
2022/03/19 08:40:16;;;;;;;23.90;18.77;;;;;;;;;;4973062;28;20493;-93
2022/03/19 08:42:51;;;;;;;32.00;21.90;;;9.80;97.70;;;;;;4976817;28;20473;-94
2022/03/19 08:45:21;;;;;;;28.10;20.77;;;;;;;;;;4984101;28;20456;-93
2022/03/19 08:47:50;;;;;;;23.67;17.40;;;;;;;;;;4983181;28;20465;-92
2022/03/19 08:50:18;;;;;;;25.30;17.73;;;;;;;;;;4984932;28;20441;-93
2022/03/19 08:52:47;;;;;;;28.80;19.10;;;9.60;94.80;;;;;;4977986;28;20504;-92
2022/03/19 08:55:15;;;;;;;23.90;17.73;;;;;;;;;;4963678;28;20455;-92
2022/03/19 08:57:42;;;;;;;27.13;19.07;;;;;;;;;;4976886;28;20537;-94
2022/03/19 09:00:12;;;;;;;29.33;18.50;;;;;;;;;;4969279;28;20816;-91
2022/03/19 09:02:40;;;;;;;27.80;18.80;;;;;;;;;;4973531;28;20455;-93
2022/03/19 09:05:07;;;;;;;25.30;16.60;;;;;;;;;;4976475;28;20845;-93
2022/03/19 09:07:35;;;;;;;21.70;15.87;;;;;;;;;;4978132;28;20480;-91
2022/03/19 09:10:04;;;;;;;28.23;19.30;;;10.60;94.40;;;;;;4979319;28;20434;-93
2022/03/19 09:12:31;;;;;;;26.87;20.13;;;;;;;;;;4977136;28;20450;-93
2022/03/19 09:14:58;;;;;;;27.13;19.80;;;;;;;;;;4977007;28;20435;-94
2022/03/19 09:17:26;;;;;;;25.97;16.70;;;;;;;;;;4975953;28;20965;-94
2022/03/19 09:19:54;;;;;;;25.53;18.87;;;;;;;;;;4980063;28;20741;-92
2022/03/19 09:22:22;;;;;;;24.10;18.30;;;;;;;;;;4996337;28;20473;-92
2022/03/19 09:24:50;;;;;;;21.97;18.30;;;;;;;;;;5003564;28;20492;-93
2022/03/19 09:27:18;;;;;;;27.57;19.30;;;;;;;;;;4998886;28;20577;-91
2022/03/19 09:29:45;;;;;;;28.87;18.27;;;;;;;;;;4980764;28;20510;-93
2022/03/19 09:32:13;;;;;;;28.70;19.50;;;;;;;;;;4973767;28;20451;-94
2022/03/19 09:34:40;;;;;;;32.70;24.93;;;;;;;;;;4972526;28;20466;-92
2022/03/19 09:37:07;;;;;;;30.63;21.03;;;;;;;;;;4971749;28;21029;-93
2022/03/19 09:39:35;;;;;;;28.90;21.13;;;;;;;;;;4971947;28;20466;-95
2022/03/19 09:42:02;;;;;;;24.87;19.53;;;;;;;;;;4973406;28;20525;-92
2022/03/19 09:44:31;;;;;;;24.40;18.60;;;12.00;91.20;;;;;;4977327;28;20458;-94
2022/03/19 09:46:58;;;;;;;25.50;17.60;;;;;;;;;;4970772;28;20501;-93
2022/03/19 09:49:25;;;;;;;28.73;21.50;;;;;;;;;;4994305;28;20800;-91
2022/03/19 09:51:54;;;;;;;25.30;20.23;;;12.20;89.70;;;;;;4994933;28;20448;-93
2022/03/19 09:54:22;;;;;;;31.93;21.50;;;;;;;;;;4996050;28;20457;-93
2022/03/19 09:56:50;;;;;;;27.17;20.23;;;;;;;;;;4998935;28;20457;-89
2022/03/19 09:59:17;;;;;;;27.03;19.90;;;;;;;;;;4998840;28;20457;-91
2022/03/19 10:01:46;;;;;;;25.83;19.50;;;12.70;82.40;;;;;;4999945;28;20889;-92
2022/03/19 10:04:17;;;;;;;23.77;19.17;;;;;;;;;;4997729;28;20944;-92
2022/03/19 10:09:44;;;;;;;25.80;20.33;;;13.20;80.30;;;;;;4997364;28;20440;-91
2022/03/19 10:12:16;;;;;;;27.83;21.23;;;12.90;82.30;;;;;;4996862;28;20437;-92
2022/03/19 10:14:49;;;;;;;26.27;20.13;;;12.30;84.60;;;;;;4993099;28;20434;-93
2022/03/19 10:17:28;;;;;;;38.57;21.37;;;;;;;;;;4996318;28;20442;-94
2022/03/19 10:19:59;;;;;;;34.40;22.03;;;14.00;84.80;;;;;;4990693;28;20933;-95
2022/03/19 10:22:28;;;;;;;26.20;21.77;;;;;;;;;;4989431;28;20519;-92
2022/03/19 10:25:00;;;;;;;27.50;21.40;;;15.00;84.50;;;;;;4996275;28;20527;-93
2022/03/19 10:27:27;;;;;;;24.53;21.20;;;;;;;;;;4992615;28;20497;-96
2022/03/19 10:30:06;;;;;;;47.13;31.43;;;15.10;93.80;;;;;;4993403;28;20434;-93
2022/03/19 10:32:35;;;;;;;30.10;23.17;;;14.80;79.00;;;;;;4987898;28;20626;-94
2022/03/19 10:35:02;;;;;;;26.83;23.00;;;;;;;;;;4996289;28;20481;-93
2022/03/19 10:37:37;;;;;;;31.40;23.53;;;14.00;80.60;;;;;;4996297;28;20457;-94
2022/03/19 10:40:06;;;;;;;32.77;23.97;;;16.90;81.40;;;;;;4990746;28;20477;-94
2022/03/19 10:42:38;;;;;;;28.30;23.30;;;14.50;78.70;;;;;;4993481;28;20458;-92
2022/03/19 10:45:07;;;;;;;25.00;22.23;;;14.70;78.20;;;;;;4995855;28;20460;-91
2022/03/19 10:47:42;;;;;;;29.00;22.30;;;15.00;78.90;;;;;;4992963;28;20489;-91
2022/03/19 10:50:10;;;;;;;27.33;22.63;;;14.00;76.40;;;;;;4994184;28;20481;-93
2022/03/19 10:52:37;;;;;;;31.30;22.80;;;;;;;;;;4992940;28;20449;-91
2022/03/19 10:55:07;;;;;;;27.23;22.97;;;14.90;80.20;;;;;;4995721;28;20456;-92
2022/03/19 10:57:34;;;;;;;32.30;23.30;;;;;;;;;;4995220;28;20465;-93
2022/03/19 11:00:01;;;;;;;28.90;23.60;;;;;;;;;;4990642;28;20449;-92
2022/03/19 11:02:29;;;;;;;30.10;23.90;;;;;;;;;;4995821;28;20434;-93
2022/03/19 11:05:00;;;;;;;32.40;25.43;;;15.20;79.30;;;;;;4995550;28;20446;-94
2022/03/19 11:07:30;;;;;;;28.63;24.20;;;15.40;79.30;;;;;;4987720;28;20849;-93
2022/03/19 11:09:59;;;;;;;31.87;25.50;;;14.10;77.40;;;;;;4995732;28;20437;-92
2022/03/19 11:12:31;;;;;;;31.33;24.90;;;14.60;78.90;;;;;;4990090;28;20936;-92
2022/03/19 11:14:59;;;;;;;28.17;23.00;;;;;;;;;;4993465;28;20434;-92
2022/03/19 11:17:30;;;;;;;33.43;25.03;;;14.70;80.60;;;;;;4995499;28;20449;-91
2022/03/19 11:20:00;;;;;;;33.90;26.33;;;14.00;79.20;;;;;;4994521;28;20544;-89
2022/03/19 11:22:29;;;;;;;32.03;26.40;;;13.80;80.30;;;;;;4994190;28;20485;-88
2022/03/19 11:25:06;;;;;;;39.17;25.73;;;13.30;80.70;;;;;;4993430;28;20848;-88
2022/03/19 11:27:37;;;;;;;37.40;22.83;;;12.50;81.10;;;;;;4992973;28;20497;-87
2022/03/19 11:30:05;;;;;;;24.67;19.43;;;;;;;;;;4993982;28;20441;-88
2022/03/19 11:32:32;;;;;;;24.83;18.80;;;;;;;;;;4991080;28;20528;-88
2022/03/19 11:35:02;;;;;;;25.40;19.27;;;14.40;78.40;;;;;;4993862;28;20476;-90
2022/03/19 11:38:04;;;;;;;20.63;15.33;;;12.80;75.90;;;;;;4991179;28;20441;-90
2022/03/19 11:40:36;;;;;;;28.10;17.40;;;12.50;78.20;;;;;;4993921;28;20453;-89
2022/03/19 11:43:06;;;;;;;28.47;19.70;;;12.90;78.30;;;;;;4989419;28;20457;-89
2022/03/19 11:45:40;;;;;;;21.27;15.63;;;13.80;76.10;;;;;;4993832;28;20832;-90
2022/03/19 11:48:41;;;;;;;20.27;15.30;;;14.30;73.40;;;;;;4991014;28;20499;-89
2022/03/19 11:51:18;;;;;;;21.53;15.87;;;14.10;72.40;;;;;;4987176;28;20472;-89
2022/03/19 11:53:53;;;;;;;20.30;15.53;;;14.90;76.10;;;;;;4992739;28;20455;-90
2022/03/19 11:56:20;;;;;;;17.33;14.17;;;;;;;;;;4992479;28;20449;-91
2022/03/19 11:58:48;;;;;;;14.93;12.33;;;;;;;;;;4993398;28;20822;-88
2022/03/19 12:01:15;;;;;;;17.20;13.40;;;;;;;;;;4991308;28;20450;-90
2022/03/19 12:04:12;;;;;;;18.73;13.73;;;12.50;76.10;;;;;;4994493;28;20444;-88
2022/03/19 12:06:51;;;;;;;17.80;12.87;;;12.50;77.20;;;;;;4993812;28;20489;-88
2022/03/19 12:09:18;;;;;;;14.17;10.63;;;;;;;;;;4993910;28;20460;-88
2022/03/19 12:12:24;;;;;;;22.10;12.00;;;13.70;78.00;;;;;;4994104;28;20496;-93
2022/03/19 12:14:51;;;;;;;17.70;12.63;;;;;;;;;;4993701;28;20441;-89
2022/03/19 12:17:20;;;;;;;16.30;12.30;;;14.90;75.80;;;;;;4994044;28;20452;-91
2022/03/19 12:19:55;;;;;;;15.87;11.97;;;15.30;73.10;;;;;;4993787;28;20947;-88
2022/03/19 12:22:38;;;;;;;16.13;11.90;;;14.90;71.00;;;;;;4993713;28;20456;-90
2022/03/19 12:25:11;;;;;;;14.83;11.00;;;13.60;73.80;;;;;;4992093;28;20481;-89
2022/03/19 12:27:39;;;;;;;16.63;11.50;;;;;;;;;;4987502;28;20497;-90
2022/03/19 12:30:07;;;;;;;13.20;10.00;;;13.10;75.50;;;;;;4991064;28;20468;-92
2022/03/19 12:32:54;;;;;;;14.13;10.23;;;13.40;74.70;;;;;;4992331;28;20454;-91
2022/03/19 12:35:21;;;;;;;13.13;9.50;;;;;;;;;;4993728;28;20450;-90
2022/03/19 12:37:51;;;;;;;14.10;10.60;;;14.10;73.70;;;;;;4992944;28;20511;-88
2022/03/19 12:40:20;;;;;;;16.20;9.10;;;13.80;72.10;;;;;;4994636;28;20464;-89
2022/03/19 12:42:52;;;;;;;12.63;8.83;;;12.90;70.60;;;;;;4996201;28;20457;-91
2022/03/19 12:45:19;;;;;;;20.93;10.00;;;;;;;;;;4997427;28;20507;-90
2022/03/19 12:47:52;;;;;;;12.07;9.30;;;12.20;69.20;;;;;;4997179;28;20500;-90
2022/03/19 12:50:20;;;;;;;17.23;9.83;;;;;;;;;;4997099;28;20457;-89
2022/03/19 12:52:47;;;;;;;19.50;10.33;;;;;;;;;;4997498;28;20472;-89
2022/03/19 12:55:21;;;;;;;15.00;10.53;;;12.50;73.00;;;;;;4994420;28;20445;-89
2022/03/19 12:57:56;;;;;;;12.20;9.37;;;13.30;72.30;;;;;;4996810;28;20513;-91
2022/03/19 13:00:23;;;;;;;14.57;9.27;;;;;;;;;;4994721;28;20491;-90
2022/03/19 13:02:51;;;;;;;12.83;9.93;;;;;;;;;;4997512;28;20441;-89
2022/03/19 13:05:18;;;;;;;15.80;10.53;;;;;;;;;;4993996;28;20441;-88
2022/03/19 13:08:01;;;;;;;12.33;8.73;;;12.60;72.30;;;;;;4990063;28;20595;-90
2022/03/19 13:10:30;;;;;;;16.10;9.90;;;;;;;;;;4990029;28;20452;-90
2022/03/19 13:13:06;;;;;;;13.60;8.90;;;12.30;71.10;;;;;;4995821;28;20813;-89
2022/03/19 13:15:33;;;;;;;11.00;8.43;;;;;;;;;;4996677;28;20448;-88
2022/03/19 13:18:01;;;;;;;10.73;8.80;;;;;;;;;;4996583;28;20922;-91
2022/03/19 13:20:28;;;;;;;10.67;7.80;;;;;;;;;;4996719;28;20472;-89
2022/03/19 13:23:01;;;;;;;9.33;7.37;;;11.40;73.20;;;;;;4996536;28;20455;-88
2022/03/19 13:25:30;;;;;;;11.50;8.30;;;11.40;73.00;;;;;;4996502;28;20998;-89
2022/03/19 13:27:57;;;;;;;12.47;8.50;;;;;;;;;;4995551;28;20503;-89
2022/03/19 13:30:26;;;;;;;10.90;7.90;;;13.30;71.00;;;;;;4993980;28;20451;-88
2022/03/19 13:32:54;;;;;;;10.97;7.87;;;;;;;;;;4996001;28;20465;-89
2022/03/19 13:35:36;;;;;;;12.73;8.60;;;12.30;69.80;;;;;;4996312;28;20453;-91
2022/03/19 13:38:09;;;;;;;11.37;8.20;;;12.10;71.90;;;;;;4993639;28;20436;-89
2022/03/19 13:40:37;;;;;;;11.40;7.93;;;11.90;72.00;;;;;;4996343;28;20453;-90
2022/03/19 13:43:04;;;;;;;10.60;8.20;;;;;;;;;;4990571;28;20445;-90
2022/03/19 13:45:32;;;;;;;11.57;7.37;;;;;;;;;;4995855;28;20461;-90
2022/03/19 13:48:03;;;;;;;9.03;7.07;;;12.20;69.80;;;;;;4995724;28;21036;-91
2022/03/19 13:50:31;;;;;;;9.73;6.73;;;;;;;;;;4996249;28;20449;-89
2022/03/19 13:53:00;;;;;;;11.70;7.13;;;;;;;;;;4995768;28;20441;-89
2022/03/19 13:55:39;;;;;;;9.47;6.70;;;13.30;65.30;;;;;;4996238;28;20993;-90
2022/03/19 13:58:07;;;;;;;10.40;7.77;;;12.80;65.70;;;;;;4995285;28;20448;-90
2022/03/19 14:00:39;;;;;;;10.40;6.87;;;13.00;65.90;;;;;;4991157;28;20802;-89
2022/03/19 14:03:08;;;;;;;11.03;7.50;;;13.60;68.70;;;;;;4991782;28;20488;-91